LIEO Información de aeropuertos

Información de pistas
Pista 05 Longitud 8025 ft Ancho 148 ft
Elevación 35 ft Umbral 805 ft Rumbo 53
Pista 23 Longitud 8025 ft Ancho 148 ft
Elevación 19 ft Umbral 495 ft Rumbo 233
Frecuencias
Tipo APP Nombre OLBIA RADA Frequencia 125.95 MHZ
Tipo ATIS Nombre ATIS Frequencia 113.9 MHZ
Tipo TWR Nombre OLBIA TWR Frequencia 118.975 MHZ
Radioayudas
Tipo VOR-DME Nombre Olbia Costa Smeralda Frequencia 113900 KHZ
Tipo NDB Nombre Olbia Costa Smeralda Frequencia 357 KHZ
Información meteorológica y NOTAM
ADDS - METARS form results

(0242 UTC 20 January 2021)
Data provider http://aviationweather.gov/metar/data/
 
METAR text: LIEO 200220Z 21003KT 160V230 CAVOK 04/04 Q1025
Conditions at: LIEO (OLBIA/COSTA SMER, IT) observed 0220 UTC 20 January 2021
Temperature: 4.0°C (39°F)
Dewpoint: 4.0°C (39°F) [RH = 100%]
Pressure (altimeter): 30.27 inches Hg (1025.0 mb)
Winds: from the SSW (210 degrees) at 3 MPH (3 knots; 1.5 m/s)
Visibility: 6 or more miles (10+ km)
Ceiling: ceiling and visibility are OK
Clouds: unknown
Weather: no significant weather observed at this time

METAR text: LIEO 200150Z 23004KT CAVOK 04/02 Q1025
Conditions at: LIEO (OLBIA/COSTA SMER, IT) observed 0150 UTC 20 January 2021
Temperature: 4.0°C (39°F)
Dewpoint: 2.0°C (36°F) [RH = 87%]
Pressure (altimeter): 30.27 inches Hg (1025.0 mb)
Winds: from the SW (230 degrees) at 5 MPH (4 knots; 2.1 m/s)
Visibility: 6 or more miles (10+ km)
Ceiling: ceiling and visibility are OK
Clouds: unknown
Weather: no significant weather observed at this time

Forecast for: LIEO (OLBIA/COSTA SMER, IT)
Text: TAF LIEO 192300Z 2000/2024 25008KT 9999 SCT040
Forecast period: 0000 to 0900 UTC 20 January 2021
Forecast type: FROM: standard forecast or significant change
Winds: from the WSW (250 degrees) at 9 MPH (8 knots; 4.1 m/s)
Visibility: 6 or more miles (10+ km)
Ceiling: at least 12,000 feet AGL
Clouds: scattered clouds at 4000 feet AGL
Weather: no significant weather forecast for this period
Text: BECMG 2009/2011 08010KT
Forecast period: 0900 UTC 20 January 2021 to 0000 UTC 21 January 2021
Forecast type: BECOMING: Conditions expected to become as follows by 1100 UTC 20 January 2021
Winds: from the E (80 degrees) at 12 MPH (10 knots; 5.1 m/s)
Visibility: 6 or more miles (10+ km)
Ceiling: at least 12,000 feet AGL
Clouds: scattered clouds at 4000 feet AGL
Weather: no significant weather forecast for this period